createdAt,value
2019-02-16T00:00:26.292Z,1031.3
2019-02-16T00:01:25.518Z,1031.29
2019-02-16T00:02:25.712Z,1031.3
2019-02-16T00:03:25.502Z,1031.25
2019-02-16T00:04:24.892Z,1031.25
2019-02-16T00:05:26.757Z,1031.3
2019-02-16T00:06:26.336Z,1031.26
2019-02-16T00:07:25.117Z,1031.28
2019-02-16T00:08:24.971Z,1031.24
2019-02-16T00:09:25.057Z,1031.28
2019-02-16T00:10:25.340Z,1031.26
2019-02-16T00:11:25.870Z,1031.27
2019-02-16T00:12:25.359Z,1031.28
2019-02-16T00:13:25.193Z,1031.27
2019-02-16T00:14:24.896Z,1031.28
2019-02-16T00:15:25.380Z,1031.25
2019-02-16T00:16:25.180Z,1031.26
2019-02-16T00:17:24.882Z,1031.25
2019-02-16T00:18:25.193Z,1031.27
2019-02-16T00:19:25.237Z,1031.27
2019-02-16T00:20:25.044Z,1031.27
2019-02-16T00:21:27.166Z,1031.28
2019-02-16T00:22:24.732Z,1031.26
2019-02-16T00:23:24.721Z,1031.27
2019-02-16T00:24:25.334Z,1031.24
2019-02-16T00:25:25.334Z,1031.26
2019-02-16T00:26:25.103Z,1031.24
2019-02-16T00:27:25.363Z,1031.26
2019-02-16T00:28:25.480Z,1031.26
2019-02-16T00:29:26.035Z,1031.26
2019-02-16T00:30:25.015Z,1031.27
2019-02-16T00:31:25.440Z,1031.24
2019-02-16T00:32:24.997Z,1031.26
2019-02-16T00:33:24.945Z,1031.25
2019-02-16T00:34:25.319Z,1031.27
2019-02-16T00:35:25.139Z,1031.27
2019-02-16T00:36:25.563Z,1031.26
2019-02-16T00:37:25.329Z,1031.24
2019-02-16T00:38:25.271Z,1031.25
2019-02-16T00:39:25.196Z,1031.26
2019-02-16T00:40:25.168Z,1031.24
2019-02-16T00:41:25.019Z,1031.23
2019-02-16T00:42:24.887Z,1031.21
2019-02-16T00:43:25.899Z,1031.2
2019-02-16T00:44:26.328Z,1031.18
2019-02-16T00:45:25.364Z,1031.17
2019-02-16T00:46:25.932Z,1031.17
2019-02-16T00:47:25.254Z,1031.16
2019-02-16T00:48:25.313Z,1031.18
2019-02-16T00:49:25.188Z,1031.18
2019-02-16T00:50:25.168Z,1031.21
2019-02-16T00:51:25.483Z,1031.23
2019-02-16T00:52:25.240Z,1031.21
2019-02-16T00:53:24.875Z,1031.22
2019-02-16T00:54:25.810Z,1031.25
2019-02-16T00:55:25.152Z,1031.23
2019-02-16T00:56:25.905Z,1031.23
2019-02-16T00:57:25.655Z,1031.2
2019-02-16T00:58:25.018Z,1031.22
2019-02-16T00:59:28.274Z,1031.21
2019-02-16T01:00:25.057Z,1031.17
2019-02-16T01:01:25.204Z,1031.19
2019-02-16T01:02:25.239Z,1031.18
2019-02-16T01:03:24.963Z,1031.18
2019-02-16T01:04:25.014Z,1031.19
2019-02-16T01:05:26.048Z,1031.18
2019-02-16T01:06:25.745Z,1031.18
2019-02-16T01:07:26.509Z,1031.21
2019-02-16T01:08:24.955Z,1031.18
2019-02-16T01:09:24.970Z,1031.21
2019-02-16T01:10:26.066Z,1031.23
2019-02-16T01:11:25.061Z,1031.24
2019-02-16T01:12:25.377Z,1031.21
2019-02-16T01:13:25.271Z,1031.22
2019-02-16T01:14:24.813Z,1031.21
2019-02-16T01:15:25.215Z,1031.16
2019-02-16T01:16:24.863Z,1031.18
2019-02-16T01:17:25.257Z,1031.2
2019-02-16T01:18:24.968Z,1031.16
2019-02-16T01:19:25.124Z,1031.18
2019-02-16T01:20:25.014Z,1031.16
2019-02-16T01:21:25.121Z,1031.22
2019-02-16T01:22:25.245Z,1031.18
2019-02-16T01:23:26.725Z,1031.22
2019-02-16T01:24:24.783Z,1031.21
2019-02-16T01:25:24.956Z,1031.22
2019-02-16T01:26:24.821Z,1031.26
2019-02-16T01:27:24.826Z,1031.26
2019-02-16T01:28:24.677Z,1031.3
2019-02-16T01:29:24.812Z,1031.3
2019-02-16T01:30:25.643Z,1031.3
2019-02-16T01:31:25.767Z,1031.3
2019-02-16T01:32:25.104Z,1031.28
2019-02-16T01:33:26.903Z,1031.23
2019-02-16T01:34:24.717Z,1031.25
2019-02-16T01:35:24.845Z,1031.21
2019-02-16T01:36:24.742Z,1031.17
2019-02-16T01:37:24.791Z,1031.18
2019-02-16T01:38:25.324Z,1031.2
2019-02-16T01:39:25.364Z,1031.17
2019-02-16T01:40:25.882Z,1031.15
2019-02-16T01:41:25.815Z,1031.19
2019-02-16T01:42:25.069Z,1031.21
2019-02-16T01:43:24.867Z,1031.16
2019-02-16T01:44:25.073Z,1031.21
2019-02-16T01:45:24.895Z,1031.19
2019-02-16T01:46:25.023Z,1031.2
2019-02-16T01:47:26.361Z,1031.24
2019-02-16T01:48:25.954Z,1031.22
2019-02-16T01:49:25.833Z,1031.22
2019-02-16T01:50:25.954Z,1031.21
2019-02-16T01:51:32.400Z,1031.19
2019-02-16T01:52:24.919Z,1031.2
2019-02-16T01:53:25.356Z,1031.18
2019-02-16T01:54:26.718Z,1031.19
2019-02-16T01:55:25.182Z,1031.2
2019-02-16T01:56:26.890Z,1031.2
2019-02-16T01:57:25.376Z,1031.2
2019-02-16T01:58:25.280Z,1031.24
2019-02-16T01:59:25.222Z,1031.26
2019-02-16T02:00:25.174Z,1031.24
2019-02-16T02:01:25.387Z,1031.27
2019-02-16T02:02:25.062Z,1031.26
2019-02-16T02:03:25.429Z,1031.26
2019-02-16T02:04:25.153Z,1031.3
2019-02-16T02:05:25.091Z,1031.28
2019-02-16T02:06:25.162Z,1031.34
2019-02-16T02:07:25.168Z,1031.32
2019-02-16T02:08:25.676Z,1031.32
2019-02-16T02:09:25.512Z,1031.33
2019-02-16T02:10:25.590Z,1031.33
2019-02-16T02:11:26.055Z,1031.35
2019-02-16T02:12:25.198Z,1031.36
2019-02-16T02:13:25.012Z,1031.4
2019-02-16T02:14:25.509Z,1031.41
2019-02-16T02:15:25.046Z,1031.4
2019-02-16T02:16:25.604Z,1031.39
2019-02-16T02:17:25.347Z,1031.37
2019-02-16T02:18:26.768Z,1031.37
2019-02-16T02:19:25.085Z,1031.36
2019-02-16T02:20:25.251Z,1031.37
2019-02-16T02:21:25.331Z,1031.35
2019-02-16T02:22:24.987Z,1031.35
2019-02-16T02:23:24.831Z,1031.32
2019-02-16T02:24:25.151Z,1031.31
2019-02-16T02:25:25.147Z,1031.29
2019-02-16T02:26:25.439Z,1031.3
2019-02-16T02:27:25.888Z,1031.27
2019-02-16T02:28:25.307Z,1031.25
2019-02-16T02:29:25.132Z,1031.21
2019-02-16T02:30:25.345Z,1031.23
2019-02-16T02:31:24.836Z,1031.23
2019-02-16T02:32:25.146Z,1031.22
2019-02-16T02:33:25.750Z,1031.2
2019-02-16T02:34:25.085Z,1031.2
2019-02-16T02:35:26.007Z,1031.21
2019-02-16T02:36:25.289Z,1031.18
2019-02-16T02:37:25.802Z,1031.18
2019-02-16T02:38:25.200Z,1031.16
2019-02-16T02:39:25.202Z,1031.15
2019-02-16T02:40:25.703Z,1031.16
2019-02-16T02:41:24.881Z,1031.12
2019-02-16T02:42:25.219Z,1031.14
2019-02-16T02:43:25.311Z,1031.13
2019-02-16T02:44:25.830Z,1031.16
2019-02-16T02:45:25.069Z,1031.15
2019-02-16T02:46:25.545Z,1031.18
2019-02-16T02:47:25.375Z,1031.15
2019-02-16T02:48:24.907Z,1031.18
2019-02-16T02:49:25.089Z,1031.19
2019-02-16T02:50:25.147Z,1031.19
2019-02-16T02:51:25.852Z,1031.19
2019-02-16T02:52:25.020Z,1031.19
2019-02-16T02:53:31.935Z,1031.25
2019-02-16T02:54:25.691Z,1031.24
2019-02-16T02:55:25.720Z,1031.21
2019-02-16T02:56:26.689Z,1031.19
2019-02-16T02:57:24.808Z,1031.19
2019-02-16T02:58:25.187Z,1031.18
2019-02-16T02:59:25.163Z,1031.13
2019-02-16T03:00:24.890Z,1031.16
2019-02-16T03:01:25.796Z,1031.15
2019-02-16T03:02:25.169Z,1031.14
2019-02-16T03:03:25.252Z,1031.11
2019-02-16T03:04:25.006Z,1031.12
2019-02-16T03:05:24.915Z,1031.1
2019-02-16T03:06:25.691Z,1031.07
2019-02-16T03:07:25.108Z,1031.06
2019-02-16T03:08:25.409Z,1031.07
2019-02-16T03:09:24.864Z,1031.06
2019-02-16T03:10:25.182Z,1031.06
2019-02-16T03:11:24.783Z,1031.08
2019-02-16T03:12:25.746Z,1031.05
2019-02-16T03:13:25.347Z,1031.07
2019-02-16T03:14:25.276Z,1031.07
2019-02-16T03:15:25.339Z,1031.06
2019-02-16T03:16:26.970Z,1031.07
2019-02-16T03:17:25.796Z,1031.06
2019-02-16T03:18:25.076Z,1031.03
2019-02-16T03:19:25.670Z,1031.05
2019-02-16T03:20:25.205Z,1031
2019-02-16T03:21:25.903Z,1031.01
2019-02-16T03:22:25.017Z,1031
2019-02-16T03:23:24.842Z,1031.02
2019-02-16T03:24:25.111Z,1030.99
2019-02-16T03:25:25.060Z,1031.02
2019-02-16T03:26:24.798Z,1031.02
2019-02-16T03:27:25.146Z,1031.03
2019-02-16T03:28:26.990Z,1031.03
2019-02-16T03:29:25.247Z,1031.02
2019-02-16T03:30:25.278Z,1031.04
2019-02-16T03:31:25.822Z,1031
2019-02-16T03:32:25.030Z,1031.01
2019-02-16T03:33:25.179Z,1031
2019-02-16T03:34:25.068Z,1031.02
2019-02-16T03:35:26.726Z,1030.98
2019-02-16T03:36:25.507Z,1030.99
2019-02-16T03:37:24.971Z,1031.01
2019-02-16T03:38:25.409Z,1030.99
2019-02-16T03:39:25.884Z,1030.99
2019-02-16T03:40:24.724Z,1031
2019-02-16T03:41:24.772Z,1031.03
2019-02-16T03:42:25.436Z,1031.03
2019-02-16T03:43:25.050Z,1031.06
2019-02-16T03:44:25.361Z,1031.05
2019-02-16T03:45:25.245Z,1031.07
2019-02-16T03:46:25.325Z,1031.11
2019-02-16T03:47:25.208Z,1031.06
2019-02-16T03:48:25.070Z,1031.07
2019-02-16T03:49:25.067Z,1031.05
2019-02-16T03:50:25.261Z,1031.08
2019-02-16T03:51:24.912Z,1031.07
2019-02-16T03:52:25.690Z,1031.07
2019-02-16T03:53:25.204Z,1031.05
2019-02-16T03:54:25.431Z,1031.08
2019-02-16T03:55:24.787Z,1031.07
2019-02-16T03:56:25.329Z,1031.1
2019-02-16T03:57:25.125Z,1031.1
2019-02-16T03:58:25.118Z,1031.12
2019-02-16T03:59:25.714Z,1031.1
2019-02-16T04:00:25.924Z,1031.09
2019-02-16T04:01:25.669Z,1031.07
2019-02-16T04:02:25.351Z,1031.1
2019-02-16T04:03:25.064Z,1031.1
2019-02-16T04:04:26.766Z,1031.14
2019-02-16T04:05:25.641Z,1031.15
2019-02-16T04:06:24.881Z,1031.15
2019-02-16T04:07:25.087Z,1031.18
2019-02-16T04:08:25.622Z,1031.2
2019-02-16T04:09:25.071Z,1031.17
2019-02-16T04:10:25.124Z,1031.16
2019-02-16T04:11:25.028Z,1031.19
2019-02-16T04:12:25.236Z,1031.17
2019-02-16T04:13:25.077Z,1031.19
2019-02-16T04:14:26.842Z,1031.2
2019-02-16T04:15:24.983Z,1031.2
2019-02-16T04:16:25.357Z,1031.2
2019-02-16T04:17:25.114Z,1031.19
2019-02-16T04:18:24.915Z,1031.17
2019-02-16T04:19:25.844Z,1031.14
2019-02-16T04:20:24.995Z,1031.2
2019-02-16T04:21:24.981Z,1031.17
2019-02-16T04:22:25.898Z,1031.18
2019-02-16T04:23:25.435Z,1031.17
2019-02-16T04:24:25.439Z,1031.18
2019-02-16T04:25:25.221Z,1031.2
2019-02-16T04:26:26.639Z,1031.19
2019-02-16T04:27:25.179Z,1031.19
2019-02-16T04:28:25.204Z,1031.22
2019-02-16T04:29:24.888Z,1031.17
2019-02-16T04:30:24.818Z,1031.17
2019-02-16T04:31:25.284Z,1031.19
2019-02-16T04:32:29.954Z,1031.19
2019-02-16T04:33:24.931Z,1031.2
2019-02-16T04:34:25.203Z,1031.19
2019-02-16T04:35:24.989Z,1031.19
2019-02-16T04:36:25.043Z,1031.24
2019-02-16T04:37:25.419Z,1031.26
2019-02-16T04:38:25.314Z,1031.28
2019-02-16T04:39:25.835Z,1031.28
2019-02-16T04:40:25.382Z,1031.27
2019-02-16T04:41:25.500Z,1031.27
2019-02-16T04:42:24.934Z,1031.3
2019-02-16T04:43:25.777Z,1031.28
2019-02-16T04:44:25.839Z,1031.31
2019-02-16T04:45:26.121Z,1031.32
2019-02-16T04:46:25.121Z,1031.29
2019-02-16T04:47:25.069Z,1031.3
2019-02-16T04:48:25.842Z,1031.28
2019-02-16T04:49:25.380Z,1031.23
2019-02-16T04:50:26.775Z,1031.23
2019-02-16T04:51:25.203Z,1031.2
2019-02-16T04:52:35.449Z,1031.2
2019-02-16T04:53:25.371Z,1031.17
2019-02-16T04:54:24.835Z,1031.13
2019-02-16T04:55:24.930Z,1031.14
2019-02-16T04:56:25.806Z,1031.1
2019-02-16T04:57:25.757Z,1031.06
2019-02-16T04:58:25.440Z,1031.04
2019-02-16T04:59:24.862Z,1031.04
2019-02-16T05:00:24.903Z,1031.05
2019-02-16T05:01:25.240Z,1031.06
2019-02-16T05:02:24.971Z,1031.06
2019-02-16T05:03:24.901Z,1031.03
2019-02-16T05:04:25.108Z,1031.05
2019-02-16T05:05:26.241Z,1031.08
2019-02-16T05:06:25.052Z,1031.05
2019-02-16T05:07:25.405Z,1031.05
2019-02-16T05:08:25.703Z,1031.04
2019-02-16T05:09:25.199Z,1031.04
2019-02-16T05:10:25.010Z,1031.03
2019-02-16T05:11:26.691Z,1031.03
2019-02-16T05:12:25.114Z,1030.97
2019-02-16T05:13:25.243Z,1030.94
2019-02-16T05:14:24.887Z,1030.95
2019-02-16T05:15:25.455Z,1030.94
2019-02-16T05:16:24.944Z,1030.94
2019-02-16T05:17:25.323Z,1030.94
2019-02-16T05:18:25.608Z,1030.94
2019-02-16T05:19:26.588Z,1030.96
2019-02-16T05:20:25.112Z,1030.93
2019-02-16T05:21:24.933Z,1030.94
2019-02-16T05:22:25.020Z,1030.98
2019-02-16T05:23:25.270Z,1030.97
2019-02-16T05:24:24.978Z,1030.99
2019-02-16T05:25:25.470Z,1031.02
2019-02-16T05:26:25.837Z,1031.03
2019-02-16T05:27:26.373Z,1031.03
2019-02-16T05:28:25.257Z,1031.04
2019-02-16T05:29:25.270Z,1031.02
2019-02-16T05:30:25.573Z,1031.04
2019-02-16T05:31:25.382Z,1031.02
2019-02-16T05:32:25.055Z,1031.05
2019-02-16T05:33:25.300Z,1031.05
2019-02-16T05:34:25.619Z,1031.04
2019-02-16T05:35:25.443Z,1031.03
2019-02-16T05:36:26.818Z,1031.03
2019-02-16T05:37:24.645Z,1031.01
2019-02-16T05:38:24.762Z,1031
2019-02-16T05:39:25.272Z,1031.05
2019-02-16T05:40:24.946Z,1031.01
2019-02-16T05:41:25.504Z,1031.01
2019-02-16T05:42:25.060Z,1031.02
2019-02-16T05:43:26.743Z,1030.98
2019-02-16T05:44:25.198Z,1030.98
2019-02-16T05:45:24.816Z,1030.96
2019-02-16T05:46:26.687Z,1030.95
2019-02-16T05:47:24.994Z,1030.91
2019-02-16T05:48:25.625Z,1030.95
2019-02-16T05:49:24.748Z,1030.96
2019-02-16T05:50:25.113Z,1030.99
2019-02-16T05:51:25.619Z,1031
2019-02-16T05:52:25.517Z,1030.98
2019-02-16T05:53:26.809Z,1030.98
2019-02-16T05:54:25.143Z,1030.97
2019-02-16T05:55:25.035Z,1030.98
2019-02-16T05:56:26.843Z,1031.03
2019-02-16T05:57:24.920Z,1030.99
2019-02-16T05:58:24.966Z,1031.02
2019-02-16T05:59:24.887Z,1031.04
2019-02-16T06:00:25.317Z,1031.05
2019-02-16T06:01:25.706Z,1031.05
2019-02-16T06:02:24.998Z,1031.05
2019-02-16T06:03:25.127Z,1031.07
2019-02-16T06:04:25.111Z,1031.05
2019-02-16T06:05:26.817Z,1031.06
2019-02-16T06:06:25.309Z,1031.06
2019-02-16T06:07:24.771Z,1031.05
2019-02-16T06:08:26.856Z,1031.05
2019-02-16T06:09:25.672Z,1031.05
2019-02-16T06:10:25.273Z,1031.01
2019-02-16T06:11:25.095Z,1031.05
2019-02-16T06:12:24.955Z,1031.01
2019-02-16T06:13:25.755Z,1031.07
2019-02-16T06:14:25.187Z,1031.06
2019-02-16T06:15:25.710Z,1031.03
2019-02-16T06:16:25.205Z,1031.02
2019-02-16T06:17:25.085Z,1031.05
2019-02-16T06:18:25.006Z,1031.05
2019-02-16T06:19:25.270Z,1031.08
2019-02-16T06:20:24.727Z,1031.12
2019-02-16T06:21:25.491Z,1031.11
2019-02-16T06:22:26.713Z,1031.09
2019-02-16T06:23:24.944Z,1031.12
2019-02-16T06:24:25.391Z,1031.16
2019-02-16T06:25:25.385Z,1031.15
2019-02-16T06:26:25.667Z,1031.13
2019-02-16T06:27:25.440Z,1031.13
2019-02-16T06:28:24.753Z,1031.16
2019-02-16T06:29:24.775Z,1031.18
2019-02-16T06:30:25.105Z,1031.17
2019-02-16T06:31:25.530Z,1031.19
2019-02-16T06:32:26.588Z,1031.21
2019-02-16T06:33:26.135Z,1031.24
2019-02-16T06:34:24.946Z,1031.2
2019-02-16T06:35:25.030Z,1031.25
2019-02-16T06:36:24.927Z,1031.3
2019-02-16T06:37:25.128Z,1031.31
2019-02-16T06:38:24.902Z,1031.33
2019-02-16T06:39:25.022Z,1031.35
2019-02-16T06:40:24.744Z,1031.39
2019-02-16T06:41:24.969Z,1031.4
2019-02-16T06:42:25.003Z,1031.42
2019-02-16T06:43:25.117Z,1031.46
2019-02-16T06:44:24.844Z,1031.45
2019-02-16T06:45:26.782Z,1031.42
2019-02-16T06:46:25.102Z,1031.44
2019-02-16T06:47:25.106Z,1031.45
2019-02-16T06:48:25.844Z,1031.47
2019-02-16T06:49:25.222Z,1031.48
2019-02-16T06:50:25.041Z,1031.49
2019-02-16T06:51:26.829Z,1031.46
2019-02-16T06:52:25.537Z,1031.49
2019-02-16T06:53:25.856Z,1031.5
2019-02-16T06:54:25.275Z,1031.56
2019-02-16T06:55:24.968Z,1031.54
2019-02-16T06:56:24.975Z,1031.56
2019-02-16T06:57:25.121Z,1031.57
2019-02-16T06:58:25.048Z,1031.59
2019-02-16T06:59:25.211Z,1031.54
2019-02-16T07:00:25.310Z,1031.6
2019-02-16T07:01:24.790Z,1031.59
2019-02-16T07:02:24.874Z,1031.61
2019-02-16T07:03:25.409Z,1031.61
2019-02-16T07:04:26.653Z,1031.63
2019-02-16T07:05:24.893Z,1031.63
2019-02-16T07:06:24.625Z,1031.64
2019-02-16T07:07:25.045Z,1031.64
2019-02-16T07:08:25.358Z,1031.63
2019-02-16T07:09:24.888Z,1031.62
2019-02-16T07:10:24.790Z,1031.61
2019-02-16T07:11:24.892Z,1031.6
2019-02-16T07:12:24.790Z,1031.6
2019-02-16T07:13:24.714Z,1031.65
2019-02-16T07:14:26.534Z,1031.63
2019-02-16T07:15:25.729Z,1031.65
2019-02-16T07:16:24.882Z,1031.68
2019-02-16T07:17:25.228Z,1031.7
2019-02-16T07:18:25.041Z,1031.7
2019-02-16T07:19:24.857Z,1031.67
2019-02-16T07:20:25.225Z,1031.66
2019-02-16T07:21:25.060Z,1031.65
2019-02-16T07:22:25.054Z,1031.65
2019-02-16T07:23:25.277Z,1031.62
2019-02-16T07:24:26.618Z,1031.67
2019-02-16T07:25:25.481Z,1031.68
2019-02-16T07:26:24.954Z,1031.67
2019-02-16T07:27:25.277Z,1031.67
2019-02-16T07:28:25.232Z,1031.68
2019-02-16T07:29:25.412Z,1031.67
2019-02-16T07:30:24.913Z,1031.67
2019-02-16T07:31:25.416Z,1031.65
2019-02-16T07:32:25.115Z,1031.68
2019-02-16T07:33:24.885Z,1031.7
2019-02-16T07:34:26.682Z,1031.72
2019-02-16T07:35:26.063Z,1031.73
2019-02-16T07:36:25.691Z,1031.69
2019-02-16T07:37:24.971Z,1031.7
2019-02-16T07:38:24.812Z,1031.68
2019-02-16T07:39:25.078Z,1031.68
2019-02-16T07:40:25.393Z,1031.67
2019-02-16T07:41:25.348Z,1031.71
2019-02-16T07:42:25.194Z,1031.71
2019-02-16T07:43:25.014Z,1031.71
2019-02-16T07:44:24.701Z,1031.69
2019-02-16T07:45:25.199Z,1031.71
2019-02-16T07:46:25.317Z,1031.73
2019-02-16T07:47:24.909Z,1031.75
2019-02-16T07:48:24.784Z,1031.77
2019-02-16T07:49:24.829Z,1031.78
2019-02-16T07:50:25.552Z,1031.81
2019-02-16T07:51:25.133Z,1031.82
2019-02-16T07:52:25.094Z,1031.82
2019-02-16T07:53:31.785Z,1031.86
2019-02-16T07:54:24.821Z,1031.88
2019-02-16T07:55:25.705Z,1031.85
2019-02-16T07:56:24.972Z,1031.84
2019-02-16T07:57:25.937Z,1031.83
2019-02-16T07:58:24.903Z,1031.82
2019-02-16T07:59:24.852Z,1031.83
2019-02-16T08:00:25.113Z,1031.84
2019-02-16T08:01:25.138Z,1031.83
2019-02-16T08:02:24.738Z,1031.81
2019-02-16T08:03:25.524Z,1031.75
2019-02-16T08:04:25.752Z,1031.8
2019-02-16T08:05:24.885Z,1031.84
2019-02-16T08:06:25.282Z,1031.81
2019-02-16T08:07:24.758Z,1031.79
2019-02-16T08:08:25.114Z,1031.82
2019-02-16T08:09:25.576Z,1031.8
2019-02-16T08:10:24.878Z,1031.84
2019-02-16T08:11:24.740Z,1031.84
2019-02-16T08:12:24.784Z,1031.86
2019-02-16T08:13:25.641Z,1031.86
2019-02-16T08:14:25.303Z,1031.84
2019-02-16T08:15:24.842Z,1031.86
2019-02-16T08:16:24.834Z,1031.85
2019-02-16T08:17:25.255Z,1031.83
2019-02-16T08:18:25.479Z,1031.79
2019-02-16T08:19:25.978Z,1031.82
2019-02-16T08:20:26.728Z,1031.78
2019-02-16T08:21:24.726Z,1031.81
2019-02-16T08:22:24.895Z,1031.79
2019-02-16T08:23:24.932Z,1031.8
2019-02-16T08:24:25.220Z,1031.81
2019-02-16T08:25:25.205Z,1031.78
2019-02-16T08:26:24.745Z,1031.78
2019-02-16T08:27:24.835Z,1031.79
2019-02-16T08:28:24.842Z,1031.81
2019-02-16T08:29:24.895Z,1031.8
2019-02-16T08:30:24.686Z,1031.8
2019-02-16T08:31:26.910Z,1031.8
2019-02-16T08:32:24.797Z,1031.82
2019-02-16T08:33:24.731Z,1031.79
2019-02-16T08:34:25.060Z,1031.77
2019-02-16T08:35:25.195Z,1031.78
2019-02-16T08:36:25.031Z,1031.75
2019-02-16T08:37:25.087Z,1031.77
2019-02-16T08:38:24.746Z,1031.76
2019-02-16T08:39:25.228Z,1031.78
2019-02-16T08:40:26.025Z,1031.79
2019-02-16T08:41:24.909Z,1031.79
2019-02-16T08:42:24.753Z,1031.82
2019-02-16T08:43:24.949Z,1031.8
2019-02-16T08:44:25.362Z,1031.84
2019-02-16T08:45:24.735Z,1031.82
2019-02-16T08:46:24.690Z,1031.82
2019-02-16T08:47:24.943Z,1031.8
2019-02-16T08:48:24.806Z,1031.78
2019-02-16T08:49:24.826Z,1031.79
2019-02-16T08:50:25.068Z,1031.77
2019-02-16T08:51:24.989Z,1031.72
2019-02-16T08:52:25.229Z,1031.73
2019-02-16T08:53:24.689Z,1031.71
2019-02-16T08:54:24.774Z,1031.69
2019-02-16T08:55:25.512Z,1031.73
2019-02-16T08:56:24.634Z,1031.73
2019-02-16T08:57:26.619Z,1031.74
2019-02-16T08:58:24.776Z,1031.73
2019-02-16T08:59:24.882Z,1031.72
2019-02-16T09:00:24.825Z,1031.73
2019-02-16T09:01:27.736Z,1031.71
2019-02-16T09:02:24.861Z,1031.68
2019-02-16T09:03:24.631Z,1031.68
2019-02-16T09:04:25.162Z,1031.66
2019-02-16T09:05:25.183Z,1031.67
2019-02-16T09:06:24.820Z,1031.65
2019-02-16T09:07:25.218Z,1031.64
2019-02-16T09:08:24.737Z,1031.63
2019-02-16T09:09:25.226Z,1031.62
2019-02-16T09:10:26.466Z,1031.62
2019-02-16T09:11:24.686Z,1031.62
2019-02-16T09:12:24.825Z,1031.64
2019-02-16T09:13:25.573Z,1031.62
2019-02-16T09:14:24.647Z,1031.61
2019-02-16T09:15:24.753Z,1031.61
2019-02-16T09:16:24.678Z,1031.58
2019-02-16T09:17:24.738Z,1031.6
2019-02-16T09:18:24.841Z,1031.57
2019-02-16T09:19:24.726Z,1031.59
2019-02-16T09:20:25.057Z,1031.6
2019-02-16T09:21:25.079Z,1031.62
2019-02-16T09:22:24.674Z,1031.62
2019-02-16T09:23:24.736Z,1031.59
2019-02-16T09:24:25.152Z,1031.62
2019-02-16T09:25:25.005Z,1031.61
2019-02-16T09:26:25.026Z,1031.62
2019-02-16T09:27:25.128Z,1031.67
2019-02-16T09:28:24.689Z,1031.66
2019-02-16T09:29:26.621Z,1031.64
2019-02-16T09:30:24.873Z,1031.61
2019-02-16T09:31:24.681Z,1031.64
2019-02-16T09:32:25.163Z,1031.65
2019-02-16T09:33:25.138Z,1031.61
2019-02-16T09:34:24.984Z,1031.61
2019-02-16T09:35:25.089Z,1031.58
2019-02-16T09:36:24.928Z,1031.57
2019-02-16T09:37:24.978Z,1031.56
2019-02-16T09:38:25.025Z,1031.58
2019-02-16T09:39:25.796Z,1031.54
2019-02-16T09:40:24.710Z,1031.53
2019-02-16T09:41:25.019Z,1031.55
2019-02-16T09:42:24.909Z,1031.54
2019-02-16T09:43:25.075Z,1031.56
2019-02-16T09:44:24.999Z,1031.52
2019-02-16T09:45:25.276Z,1031.49
2019-02-16T09:46:25.143Z,1031.5
2019-02-16T09:47:24.882Z,1031.51
2019-02-16T09:48:25.060Z,1031.54
2019-02-16T09:49:25.259Z,1031.53
2019-02-16T09:50:25.046Z,1031.49
2019-02-16T09:51:26.624Z,1031.49
2019-02-16T09:52:25.056Z,1031.48
2019-02-16T09:53:24.705Z,1031.48
2019-02-16T09:54:24.658Z,1031.49
2019-02-16T09:55:25.343Z,1031.5
2019-02-16T09:56:25.346Z,1031.49
2019-02-16T09:57:24.933Z,1031.49
2019-02-16T09:58:24.741Z,1031.53
2019-02-16T09:59:24.726Z,1031.53
2019-02-16T10:00:24.823Z,1031.53
2019-02-16T10:01:24.884Z,1031.53
2019-02-16T10:02:25.065Z,1031.52
2019-02-16T10:03:25.353Z,1031.57
2019-02-16T10:04:25.069Z,1031.58
2019-02-16T10:05:24.897Z,1031.55
2019-02-16T10:06:25.530Z,1031.57
2019-02-16T10:07:25.930Z,1031.59
2019-02-16T10:08:26.631Z,1031.56
2019-02-16T10:09:25.048Z,1031.6
2019-02-16T10:10:24.827Z,1031.61
2019-02-16T10:11:25.052Z,1031.59
2019-02-16T10:12:24.959Z,1031.6
2019-02-16T10:13:24.526Z,1031.58
2019-02-16T10:14:24.657Z,1031.64
2019-02-16T10:15:25.066Z,1031.59
2019-02-16T10:16:24.679Z,1031.59
2019-02-16T10:17:26.273Z,1031.57
2019-02-16T10:18:24.879Z,1031.58
2019-02-16T10:19:24.889Z,1031.59
2019-02-16T10:20:24.905Z,1031.56
2019-02-16T10:21:25.108Z,1031.56
2019-02-16T10:22:24.736Z,1031.54
2019-02-16T10:23:25.014Z,1031.54
2019-02-16T10:24:25.139Z,1031.51
2019-02-16T10:25:25.490Z,1031.51
2019-02-16T10:26:24.669Z,1031.5
2019-02-16T10:27:25.062Z,1031.51
2019-02-16T10:28:25.475Z,1031.48
2019-02-16T10:29:26.819Z,1031.48
2019-02-16T10:30:25.181Z,1031.51
2019-02-16T10:31:26.518Z,1031.49
2019-02-16T10:32:26.719Z,1031.51
2019-02-16T10:33:25.101Z,1031.5
2019-02-16T10:34:24.905Z,1031.54
2019-02-16T10:35:25.137Z,1031.52
2019-02-16T10:36:24.872Z,1031.47
2019-02-16T10:37:26.514Z,1031.46
2019-02-16T10:38:24.825Z,1031.5
2019-02-16T10:39:25.339Z,1031.51
2019-02-16T10:40:24.759Z,1031.5
2019-02-16T10:41:24.873Z,1031.44
2019-02-16T10:42:27.891Z,1031.47
2019-02-16T10:43:24.954Z,1031.44
2019-02-16T10:44:26.732Z,1031.4
2019-02-16T10:45:24.709Z,1031.4
2019-02-16T10:46:24.890Z,1031.38
2019-02-16T10:47:25.014Z,1031.37
2019-02-16T10:48:25.108Z,1031.38
2019-02-16T10:49:25.785Z,1031.36
2019-02-16T10:50:25.942Z,1031.36
2019-02-16T10:51:24.822Z,1031.36
2019-02-16T10:52:24.799Z,1031.36
2019-02-16T10:53:24.841Z,1031.35
2019-02-16T10:54:29.863Z,1031.36
2019-02-16T10:55:24.938Z,1031.3
2019-02-16T10:56:25.166Z,1031.32
2019-02-16T10:57:24.962Z,1031.29
2019-02-16T10:58:25.138Z,1031.25
2019-02-16T10:59:25.321Z,1031.27
2019-02-16T11:00:25.200Z,1031.24
2019-02-16T11:01:25.063Z,1031.26
2019-02-16T11:02:24.732Z,1031.26
2019-02-16T11:03:26.589Z,1031.23
2019-02-16T11:04:24.841Z,1031.16
2019-02-16T11:05:24.696Z,1031.19
2019-02-16T11:06:26.609Z,1031.18
2019-02-16T11:07:24.957Z,1031.23
2019-02-16T11:08:24.852Z,1031.18
2019-02-16T11:09:25.157Z,1031.17
2019-02-16T11:10:24.844Z,1031.16
2019-02-16T11:11:25.190Z,1031.15
2019-02-16T11:12:25.066Z,1031.12
2019-02-16T11:13:26.073Z,1031.15
2019-02-16T11:14:24.733Z,1031.16
2019-02-16T11:15:24.993Z,1031.17
2019-02-16T11:16:24.989Z,1031.18
2019-02-16T11:17:24.686Z,1031.16
2019-02-16T11:18:25.018Z,1031.16
2019-02-16T11:19:25.021Z,1031.13
2019-02-16T11:20:25.061Z,1031.14
2019-02-16T11:21:24.955Z,1031.15
2019-02-16T11:22:24.602Z,1031.13
2019-02-16T11:23:24.789Z,1031.13
2019-02-16T11:24:25.165Z,1031.12
2019-02-16T11:25:24.923Z,1031.13
2019-02-16T11:26:25.108Z,1031.09
2019-02-16T11:27:25.764Z,1031.12
2019-02-16T11:28:24.885Z,1031.09
2019-02-16T11:29:24.965Z,1031.06
2019-02-16T11:30:24.786Z,1031.08
2019-02-16T11:31:24.671Z,1031.03
2019-02-16T11:32:25.737Z,1031.02
2019-02-16T11:33:25.552Z,1031.03
2019-02-16T11:34:24.495Z,1031.02
2019-02-16T11:35:24.954Z,1030.99
2019-02-16T11:36:25.161Z,1031
2019-02-16T11:37:25.113Z,1031
2019-02-16T11:38:24.954Z,1030.96
2019-02-16T11:39:24.852Z,1030.96
2019-02-16T11:40:24.720Z,1030.93
2019-02-16T11:41:24.854Z,1030.94
2019-02-16T11:42:24.759Z,1030.89
2019-02-16T11:43:24.999Z,1030.88
2019-02-16T11:44:24.843Z,1030.85
2019-02-16T11:45:24.659Z,1030.82
2019-02-16T11:46:24.793Z,1030.79
2019-02-16T11:47:24.732Z,1030.8
2019-02-16T11:48:25.160Z,1030.81
2019-02-16T11:49:26.470Z,1030.79
2019-02-16T11:50:25.060Z,1030.78
2019-02-16T11:51:26.555Z,1030.81
2019-02-16T11:52:26.822Z,1030.78
2019-02-16T11:53:24.896Z,1030.78
2019-02-16T11:54:25.641Z,1030.77
2019-02-16T11:55:24.830Z,1030.75
2019-02-16T11:56:24.778Z,1030.77
2019-02-16T11:57:25.228Z,1030.75
2019-02-16T11:58:24.743Z,1030.73
2019-02-16T11:59:24.848Z,1030.69
2019-02-16T12:00:24.735Z,1030.71
2019-02-16T12:01:24.970Z,1030.69
2019-02-16T12:02:24.504Z,1030.64
2019-02-16T12:03:25.218Z,1030.63
2019-02-16T12:04:24.940Z,1030.6
2019-02-16T12:05:25.054Z,1030.59
2019-02-16T12:06:24.686Z,1030.55
2019-02-16T12:07:25.293Z,1030.56
2019-02-16T12:08:24.889Z,1030.52